Nizhnekamsk, Russia
Current Conditions -  °F | °C
As of 1:30 AM on Sunday 26 Oct 2014 (Local Time) from UWKE Reporting Station
Clear Clear  
Wind Chill:   Ceiling: Unl
Heat Index: 14°   Visibility: 6mi
Dew Point: 10°   Wind: 11mph
Humidity: 86%   Direction: 320°NW
Pressure: 30.36"   Gusts: NA
Location:  55.64°N, 51.82°E
Report Text: UWKE 252230Z 32005MPS CAVOK M10/M12 Q1028 NOSIG RMK QFE754/100503090070
Loading
Personal Weather Stations






























Interactive Weather Map
Tropical Storm Tracking
New forecast layout! Learn more

10-Day Weather Forecast

Advertisements
Track Severe Weather on mobile